Time;durP1;ratioP1;P1;durP2;ratioP2;P2;SDS_P1;SDS_P2;PMS_P1;PMS_P2;Temp;Humidity;BMP_temperature;BMP_pressure;BME280_temperature;BME280_humidity;BME280_pressure;Samples;Min_cycle;Max_cycle;Signal;HPM_P1;HPM_P2
2023/12/20 00:01:52;;;;;;;1.45;1.20;;;;;;;;;;5021036;28;20506;-87
2023/12/20 00:04:21;;;;;;;2.33;1.67;;;;;;;;;;5020996;28;20073;-87
2023/12/20 00:06:49;;;;;;;1.75;1.33;;;;;;;;;;5019999;28;20061;-86
2023/12/20 00:09:18;;;;;;;1.50;1.00;;;;;;;;;;5021062;28;20060;-87
2023/12/20 00:11:46;;;;;;;2.63;1.30;;;;;;;;;;5019918;28;20041;-87
2023/12/20 00:14:15;;;;;;;1.80;1.13;;;;;;;;;;5022317;28;20046;-88
2023/12/20 00:16:43;;;;;;;1.73;1.50;;;;;;;;;;5017239;28;20056;-87
2023/12/20 00:19:13;;;;;;;3.28;1.33;;;;;;;;;;5021133;28;20041;-87
2023/12/20 00:21:42;;;;;;;2.20;1.50;;;;;;;;;;5022759;28;20052;-87
2023/12/20 00:24:10;;;;;;;1.98;1.23;;;;;;;;;;5019779;28;20046;-87
2023/12/20 00:26:39;;;;;;;2.42;1.27;;;;;;;;;;5020862;28;20571;-87
2023/12/20 00:29:07;;;;;;;1.92;1.40;;;;;;;;;;5020349;28;20058;-87
2023/12/20 00:31:35;;;;;;;1.45;1.15;;;;;;;;;;5016969;28;20426;-87
2023/12/20 00:34:04;;;;;;;2.67;1.55;;;;;;;;;;5020752;28;20045;-87
2023/12/20 00:36:34;;;;;;;2.00;1.73;;;;;;;;;;5019999;28;20099;-87
2023/12/20 00:39:03;;;;;;;2.67;1.70;;;;;;;;;;5022717;28;20081;-87
2023/12/20 00:41:32;;;;;;;2.40;1.23;;;;;;;;;;5018794;28;20728;-88
2023/12/20 00:44:00;;;;;;;1.40;1.25;;;;;;;;;;5019186;28;20061;-86
2023/12/20 00:46:29;;;;;;;5.38;1.40;;;;;;;;;;5020611;28;20510;-86
2023/12/20 00:48:57;;;;;;;2.10;1.33;;;;;;;;;;5016612;28;20054;-86
2023/12/20 00:51:26;;;;;;;2.50;1.30;;;;;;;;;;5017424;28;20478;-86
2023/12/20 00:53:55;;;;;;;2.30;1.42;;;;;;;;;;5018178;28;20372;-87
2023/12/20 00:56:24;;;;;;;2.67;1.10;;;;;;;;;;5019480;28;20057;-87
2023/12/20 00:58:52;;;;;;;1.20;0.93;;;;;;;;;;5020168;28;20053;-86
2023/12/20 01:01:21;;;;;;;3.17;1.38;;;;;;;;;;5020663;28;20049;-86
2023/12/20 01:03:51;;;;;;;1.67;1.30;;;;;;;;;;5017136;28;20045;-87
2023/12/20 01:06:19;;;;;;;1.30;1.20;;;;;;;;;;5020348;28;20095;-85
2023/12/20 01:08:48;;;;;;;1.83;1.27;;;;;;;;;;5018241;28;20057;-87
2023/12/20 01:11:18;;;;;;;1.42;1.20;;;;;;;;;;5017442;28;20507;-86
2023/12/20 01:13:46;;;;;;;1.33;1.00;;;;;;;;;;5020859;28;20335;-87
2023/12/20 01:16:16;;;;;;;1.20;1.10;;;;;;;;;;5018391;28;20069;-87
2023/12/20 01:18:45;;;;;;;2.42;1.38;;;;;;;;;;5018459;28;20584;-87
2023/12/20 01:21:13;;;;;;;1.13;1.02;;;;;;;;;;5020328;28;20137;-87
2023/12/20 01:23:41;;;;;;;1.30;1.20;;;;;;;;;;5018257;28;20050;-88
2023/12/20 01:26:11;;;;;;;1.38;1.25;;;;;;;;;;5022633;28;20107;-86
2023/12/20 01:28:41;;;;;;;1.88;1.30;;;;;;;;;;5025247;28;20096;-89
2023/12/20 01:31:10;;;;;;;1.42;1.20;;;;;;;;;;5024025;28;20493;-88
2023/12/20 01:33:38;;;;;;;1.50;1.10;;;;;;;;;;5024563;28;20038;-92
2023/12/20 01:36:07;;;;;;;1.13;1.00;;;;;;;;;;5020803;28;20053;-90
2023/12/20 01:38:36;;;;;;;1.30;1.15;;;;;;;;;;5019252;28;20062;-86
2023/12/20 01:41:04;;;;;;;2.20;1.10;;;;;;;;;;5022525;28;20053;-89
2023/12/20 01:43:33;;;;;;;1.48;1.20;;;;;;;;;;5021748;28;20535;-89
2023/12/20 01:46:17;;;;;;;1.17;0.90;;;;;;;;;;5022586;28;20046;-90
2023/12/20 01:48:46;;;;;;;1.13;0.98;;;;;;;;;;5027230;28;20045;-90
2023/12/20 01:51:14;;;;;;;2.15;1.02;;;;;;;;;;5025615;28;20050;-88
2023/12/20 01:53:43;;;;;;;1.38;0.98;;;;;;;;;;5023540;28;20111;-88
2023/12/20 01:56:12;;;;;;;1.52;1.17;;;;;;;;;;5020468;28;20557;-88
2023/12/20 01:58:45;;;;;;;0.90;0.77;;;;;;;;;;5023228;28;20057;-89
2023/12/20 02:01:13;;;;;;;0.90;0.88;;;;;;;;;;5019970;28;20042;-89
2023/12/20 02:03:43;;;;;;;0.82;0.73;;;;;;;;;;5022703;28;20053;-88
2023/12/20 02:06:13;;;;;;;1.20;1.05;;;;;;;;;;5017131;28;20050;-87
2023/12/20 02:08:42;;;;;;;1.08;0.90;;;;;;;;;;5023555;28;20045;-89
2023/12/20 02:11:11;;;;;;;1.55;1.10;;;;;;;;;;5020530;28;20069;-90
2023/12/20 02:13:40;;;;;;;2.13;1.02;;;;;;;;;;5021459;28;20048;-89
2023/12/20 02:16:09;;;;;;;0.82;0.82;;;;;;;;;;5022363;28;20049;-88
2023/12/20 02:18:37;;;;;;;1.00;0.88;;;;;;;;;;5023809;28;20526;-87
2023/12/20 02:21:07;;;;;;;0.90;0.82;;;;;;;;;;5022669;28;20061;-88
2023/12/20 02:23:37;;;;;;;1.67;1.10;;;;;;;;;;5023514;28;20072;-88
2023/12/20 02:26:07;;;;;;;1.55;1.17;;;;;;;;;;5023196;28;20057;-88
2023/12/20 02:28:35;;;;;;;1.80;0.90;;;;;;;;;;5020573;28;20111;-87
2023/12/20 02:31:04;;;;;;;0.98;0.80;;;;;;;;;;5017572;28;20081;-87
2023/12/20 02:33:33;;;;;;;0.82;0.75;;;;;;;;;;5022808;28;20053;-87
2023/12/20 02:36:01;;;;;;;1.27;0.90;;;;;;;;;;5024578;28;20053;-87
2023/12/20 02:38:30;;;;;;;2.60;1.10;;;;;;;;;;5022229;28;20449;-88
2023/12/20 02:40:59;;;;;;;1.05;0.90;;;;;;;;;;5018747;28;20056;-87
2023/12/20 02:43:28;;;;;;;2.05;0.80;;;;;;;;;;5021866;28;20069;-86
2023/12/20 02:45:56;;;;;;;1.20;0.82;;;;;;;;;;5020976;28;20049;-88
2023/12/20 02:48:25;;;;;;;0.75;0.70;;;;;;;;;;5023693;28;20443;-89
2023/12/20 02:50:54;;;;;;;1.67;0.90;;;;;;;;;;5025207;28;20548;-88
2023/12/20 02:53:22;;;;;;;1.00;0.90;;;;;;;;;;5023304;28;20059;-87
2023/12/20 02:55:51;;;;;;;1.10;0.88;;;;;;;;;;5020682;28;20049;-86
2023/12/20 02:58:21;;;;;;;0.70;0.60;;;;;;;;;;5022312;28;20061;-86
2023/12/20 03:00:49;;;;;;;0.70;0.70;;;;;;;;;;5019852;28;20057;-88
2023/12/20 03:03:17;;;;;;;0.75;0.75;;;;;;;;;;5018233;28;20042;-87
2023/12/20 03:05:47;;;;;;;0.90;0.80;;;;;;;;;;5017806;28;20061;-89
2023/12/20 03:08:15;;;;;;;0.93;0.70;;;;;;;;;;5019590;28;20080;-88
2023/12/20 03:10:43;;;;;;;0.77;0.70;;;;;;;;;;5023655;28;20037;-88
2023/12/20 03:13:12;;;;;;;0.85;0.60;;;;;;;;;;5019079;28;20061;-88
2023/12/20 03:15:42;;;;;;;0.60;0.60;;;;;;;;;;5019393;28;20124;-87
2023/12/20 03:18:11;;;;;;;1.05;0.70;;;;;;;;;;5021334;28;20049;-87
2023/12/20 03:20:41;;;;;;;0.98;0.70;;;;;;;;;;5018531;28;20057;-91
2023/12/20 03:23:09;;;;;;;0.52;0.52;;;;;;;;;;5019134;28;20045;-87
2023/12/20 03:25:38;;;;;;;0.98;0.90;;;;;;;;;;5024291;28;20053;-85
2023/12/20 03:28:06;;;;;;;0.63;0.60;;;;;;;;;;5021104;28;20041;-87
2023/12/20 03:30:35;;;;;;;0.60;0.60;;;;;;;;;;5021284;28;20049;-86
2023/12/20 03:33:05;;;;;;;0.57;0.57;;;;;;;;;;5019182;28;20050;-85
2023/12/20 03:35:34;;;;;;;0.50;0.50;;;;;;;;;;5020727;28;20041;-87
2023/12/20 03:38:02;;;;;;;0.63;0.63;;;;;;;;;;5021458;28;20050;-85
2023/12/20 03:40:30;;;;;;;0.60;0.57;;;;;;;;;;5021758;28;20050;-87
2023/12/20 03:42:59;;;;;;;0.70;0.50;;;;;;;;;;5022953;28;20405;-88
2023/12/20 03:45:28;;;;;;;1.58;0.70;;;;;;;;;;5025173;28;20707;-86
2023/12/20 03:47:56;;;;;;;0.60;0.60;;;;;;;;;;5021621;28;20057;-88
2023/12/20 03:50:26;;;;;;;0.98;0.57;;;;;;;;;;5022869;28;20108;-86
2023/12/20 03:52:55;;;;;;;1.75;0.50;;;;;;;;;;5023759;28;20060;-86
2023/12/20 03:55:23;;;;;;;0.73;0.70;;;;;;;;;;5021747;28;20123;-86
2023/12/20 03:57:52;;;;;;;0.60;0.60;;;;;;;;;;5023086;28;20041;-84
2023/12/20 04:00:21;;;;;;;0.77;0.65;;;;;;;;;;5020955;28;20061;-86
2023/12/20 04:02:49;;;;;;;0.60;0.60;;;;;;;;;;5020705;28;20053;-87
2023/12/20 04:05:18;;;;;;;0.85;0.70;;;;;;;;;;5020289;28;20561;-86
2023/12/20 04:07:50;;;;;;;0.65;0.60;;;;;;;;;;5021954;28;20124;-85
2023/12/20 04:10:18;;;;;;;0.70;0.70;;;;;;;;;;5021447;28;20049;-84
2023/12/20 04:12:47;;;;;;;0.55;0.50;;;;;;;;;;5020415;28;20133;-86
2023/12/20 04:15:16;;;;;;;0.47;0.47;;;;;;;;;;5016413;28;20585;-87
2023/12/20 04:17:44;;;;;;;0.60;0.60;;;;;;;;;;5020315;28;20133;-86
2023/12/20 04:20:13;;;;;;;0.95;0.60;;;;;;;;;;5020412;28;20045;-85
2023/12/20 04:22:42;;;;;;;0.63;0.63;;;;;;;;;;5023118;28;20107;-85
2023/12/20 04:25:12;;;;;;;1.13;0.70;;;;;;;;;;5019866;28;20046;-89
2023/12/20 04:27:40;;;;;;;0.70;0.70;;;;;;;;;;5016741;28;20111;-84
2023/12/20 04:30:09;;;;;;;1.00;0.68;;;;;;;;;;5019357;28;20479;-85
2023/12/20 04:32:38;;;;;;;0.52;0.52;;;;;;;;;;5017921;28;20148;-84
2023/12/20 04:35:08;;;;;;;0.82;0.70;;;;;;;;;;5024061;28;20417;-84
2023/12/20 04:37:37;;;;;;;1.23;0.75;;;;;;;;;;5020128;28;20053;-85
2023/12/20 04:40:06;;;;;;;0.73;0.60;;;;;;;;;;5021142;28;20517;-84
2023/12/20 04:42:36;;;;;;;0.75;0.70;;;;;;;;;;5019285;28;20516;-83
2023/12/20 04:45:05;;;;;;;0.88;0.75;;;;;;;;;;5017992;28;20111;-87
2023/12/20 04:47:33;;;;;;;1.00;0.90;;;;;;;;;;5019453;28;20502;-87
2023/12/20 04:50:02;;;;;;;0.70;0.70;;;;;;;;;;5019095;28;20071;-87
2023/12/20 04:52:31;;;;;;;0.77;0.70;;;;;;;;;;5017404;28;20061;-86
2023/12/20 04:55:00;;;;;;;0.95;0.80;;;;;;;;;;5017692;28;20483;-94
2023/12/20 04:57:29;;;;;;;1.05;0.90;;;;;;;;;;5024337;28;20058;-86
2023/12/20 04:59:59;;;;;;;1.48;1.05;;;;;;;;;;5018531;28;20066;-87
2023/12/20 05:02:27;;;;;;;1.10;1.00;;;;;;;;;;5019949;28;20065;-86
2023/12/20 05:04:56;;;;;;;1.08;0.90;;;;;;;;;;5020950;28;20049;-84
2023/12/20 05:07:24;;;;;;;2.00;1.10;;;;;;;;;;5020333;28;20084;-84
2023/12/20 05:09:53;;;;;;;1.48;1.27;;;;;;;;;;5015901;28;20045;-86
2023/12/20 05:12:21;;;;;;;2.63;0.90;;;;;;;;;;5019184;28;20104;-86
2023/12/20 05:14:50;;;;;;;1.13;1.00;;;;;;;;;;5021260;28;20046;-88
2023/12/20 05:17:21;;;;;;;1.00;0.80;;;;;;;;;;5019127;28;20049;-85
2023/12/20 05:19:49;;;;;;;2.47;1.30;;;;;;;;;;5023206;28;20124;-86
2023/12/20 05:22:18;;;;;;;1.45;1.02;;;;;;;;;;5018251;28;20064;-87
2023/12/20 05:24:46;;;;;;;2.35;1.00;;;;;;;;;;5018573;28;20482;-86
2023/12/20 05:27:15;;;;;;;3.22;1.48;;;;;;;;;;5016125;28;20371;-86
2023/12/20 05:29:43;;;;;;;1.38;1.10;;;;;;;;;;5020878;28;20060;-84
2023/12/20 05:32:12;;;;;;;1.35;1.08;;;;;;;;;;5022984;28;20045;-88
2023/12/20 05:34:42;;;;;;;2.88;1.73;;;;;;;;;;5018035;28;20048;-84
2023/12/20 05:37:11;;;;;;;4.43;1.83;;;;;;;;;;5015936;28;20048;-88
2023/12/20 05:39:39;;;;;;;2.47;1.27;;;;;;;;;;5020469;28;20104;-86
2023/12/20 05:42:08;;;;;;;2.03;1.48;;;;;;;;;;5018031;28;20061;-85
2023/12/20 05:44:37;;;;;;;1.98;1.33;;;;;;;;;;5021454;28;20049;-87
2023/12/20 05:47:05;;;;;;;2.85;1.40;;;;;;;;;;5020339;28;20140;-86
2023/12/20 05:49:34;;;;;;;2.28;1.60;;;;;;;;;;5016989;28;20099;-85
2023/12/20 05:52:04;;;;;;;2.58;1.55;;;;;;;;;;5022707;28;20072;-89
2023/12/20 05:54:32;;;;;;;1.83;1.50;;;;;;;;;;5019945;28;20045;-85
2023/12/20 05:57:01;;;;;;;1.73;1.30;;;;;;;;;;5020008;28;20037;-88
2023/12/20 05:59:30;;;;;;;1.65;1.10;;;;;;;;;;5021339;28;20057;-89
2023/12/20 06:01:58;;;;;;;1.23;1.13;;;;;;;;;;5019456;28;20547;-89
2023/12/20 06:04:26;;;;;;;2.72;1.25;;;;;;;;;;5021721;28;20053;-89
2023/12/20 06:06:55;;;;;;;1.42;1.20;;;;;;;;;;5022069;28;20050;-88
2023/12/20 06:09:25;;;;;;;2.75;1.42;;;;;;;;;;5025496;28;20041;-89
2023/12/20 06:11:58;;;;;;;1.55;1.00;;;;;;;;;;5018449;28;20146;-91
2023/12/20 06:14:26;;;;;;;4.75;1.20;;;;;;;;;;5020694;28;20081;-90
2023/12/20 06:16:55;;;;;;;2.05;1.20;;;;;;;;;;5023581;28;20057;-86
2023/12/20 06:19:23;;;;;;;1.42;1.30;;;;;;;;;;5019142;28;20123;-84
2023/12/20 06:21:52;;;;;;;2.33;1.45;;;;;;;;;;5021242;28;20513;-85
2023/12/20 06:24:21;;;;;;;2.22;1.17;;;;;;;;;;5024637;28;20052;-84
2023/12/20 06:26:51;;;;;;;2.10;1.20;;;;;;;;;;5021997;28;20061;-85
2023/12/20 06:29:19;;;;;;;1.92;1.33;;;;;;;;;;5024171;28;20498;-86
2023/12/20 06:31:48;;;;;;;2.08;1.27;;;;;;;;;;5021640;28;20619;-83
2023/12/20 06:34:16;;;;;;;1.50;1.40;;;;;;;;;;5021190;28;20065;-85
2023/12/20 06:36:45;;;;;;;1.73;1.17;;;;;;;;;;5020995;28;20054;-83
2023/12/20 06:39:13;;;;;;;5.57;1.52;;;;;;;;;;5018952;28;20042;-86
2023/12/20 06:41:42;;;;;;;3.13;1.40;;;;;;;;;;5019705;28;20050;-83
2023/12/20 06:44:12;;;;;;;1.10;1.00;;;;;;;;;;5022997;28;20053;-87
2023/12/20 06:46:41;;;;;;;2.90;1.42;;;;;;;;;;5020393;28;20053;-85
2023/12/20 06:49:09;;;;;;;1.30;1.10;;;;;;;;;;5022636;28;20049;-87
2023/12/20 06:51:37;;;;;;;1.63;1.30;;;;;;;;;;5019618;28;20060;-85
2023/12/20 06:54:06;;;;;;;3.58;1.63;;;;;;;;;;5023727;28;20053;-85
2023/12/20 06:56:35;;;;;;;2.25;1.38;;;;;;;;;;5024362;28;20127;-87
2023/12/20 06:59:03;;;;;;;3.30;1.50;;;;;;;;;;5022272;28;20486;-86
2023/12/20 07:01:33;;;;;;;1.77;1.20;;;;;;;;;;5021975;28;20595;-88
2023/12/20 07:04:02;;;;;;;2.38;1.25;;;;;;;;;;5021676;28;20132;-87
2023/12/20 07:06:30;;;;;;;1.98;1.25;;;;;;;;;;5018584;28;20192;-87
2023/12/20 07:08:59;;;;;;;1.75;1.33;;;;;;;;;;5021288;28;20053;-86
2023/12/20 07:11:27;;;;;;;2.35;1.40;;;;;;;;;;5017149;28;20519;-84
2023/12/20 07:13:56;;;;;;;3.88;1.33;;;;;;;;;;5020025;28;20045;-84
2023/12/20 07:16:24;;;;;;;1.70;1.17;;;;;;;;;;5019736;28;20053;-85
2023/12/20 07:18:56;;;;;;;2.92;1.30;;;;;;;;;;5018961;28;20144;-84
2023/12/20 07:21:25;;;;;;;1.80;1.30;;;;;;;;;;5021258;28;20065;-85
2023/12/20 07:23:53;;;;;;;1.27;1.15;;;;;;;;;;5022525;28;20112;-85
2023/12/20 07:26:21;;;;;;;1.63;1.10;;;;;;;;;;5019562;28;20050;-84
2023/12/20 07:28:50;;;;;;;0.95;0.88;;;;;;;;;;5017992;28;20053;-88
2023/12/20 07:31:19;;;;;;;1.27;1.00;;;;;;;;;;5024813;28;20050;-88
2023/12/20 07:33:47;;;;;;;0.82;0.82;;;;;;;;;;5018274;28;20050;-90
2023/12/20 07:36:17;;;;;;;1.77;1.25;;;;;;;;;;5022629;28;20498;-87
2023/12/20 07:38:46;;;;;;;0.80;0.80;;;;;;;;;;5018777;28;20054;-90
2023/12/20 07:41:15;;;;;;;1.35;0.90;;;;;;;;;;5024228;28;20057;-86
2023/12/20 07:43:44;;;;;;;1.27;0.98;;;;;;;;;;5023395;28;20090;-84
2023/12/20 07:46:12;;;;;;;1.25;0.82;;;;;;;;;;5018194;28;20108;-86
2023/12/20 07:48:42;;;;;;;2.42;0.80;;;;;;;;;;5021782;28;20045;-85
2023/12/20 07:51:13;;;;;;;1.00;0.90;;;;;;;;;;5021465;28;20056;-86
2023/12/20 07:53:43;;;;;;;0.70;0.70;;;;;;;;;;5022300;28;20544;-85
2023/12/20 07:56:17;;;;;;;1.35;0.90;;;;;;;;;;5021306;28;20049;-84
2023/12/20 07:58:48;;;;;;;0.80;0.80;;;;;;;;;;5023600;28;20053;-85
2023/12/20 08:01:20;;;;;;;;;;;;;;;;;;5020374;28;20065;-86
2023/12/20 08:03:50;;;;;;;0.70;0.65;;;;;;;;;;5021707;28;20017;-84
2023/12/20 08:06:20;;;;;;;0.73;0.73;;;;;;;;;;5023137;28;20053;-85
2023/12/20 08:08:50;;;;;;;0.60;0.60;;;;;;;;;;5021436;28;20046;-84
2023/12/20 08:11:29;;;;;;;1.17;0.73;;;;;;;;;;5021459;28;20062;-85
2023/12/20 08:13:58;;;;;;;1.02;0.70;;;;;;;;;;5021300;28;20128;-85
2023/12/20 08:16:26;;;;;;;1.67;0.82;;;;;;;;;;5019674;28;20140;-83
2023/12/20 08:18:55;;;;;;;0.70;0.70;;;;;;;;;;5020696;28;20049;-85
2023/12/20 08:21:24;;;;;;;1.33;0.70;;;;;;;;;;5023073;28;20077;-83
2023/12/20 08:23:54;;;;;;;1.00;0.80;;;;;;;;;;5019727;28;20069;-84
2023/12/20 08:26:24;;;;;;;1.75;0.65;;;;;;;;;;5021627;28;20038;-83
2023/12/20 08:28:52;;;;;;;0.70;0.70;;;;;;;;;;5022687;28;20069;-89
2023/12/20 08:31:21;;;;;;;1.45;0.65;;;;;;;;;;5019372;28;20046;-83
2023/12/20 08:33:52;;;;;;;2.22;0.85;;;;;;;;;;5019575;28;20107;-85
2023/12/20 08:36:23;;;;;;;0.93;0.70;;;;;;;;;;5019520;28;20454;-87
2023/12/20 08:38:53;;;;;;;0.82;0.60;;;;;;;;;;5015423;28;20060;-85
2023/12/20 08:41:22;;;;;;;0.70;0.70;;;;;;;;;;5019365;28;20475;-84
2023/12/20 08:43:50;;;;;;;1.23;0.80;;;;;;;;;;5020055;28;20058;-85
2023/12/20 08:46:19;;;;;;;1.00;0.68;;;;;;;;;;5017375;28;20552;-85
2023/12/20 08:48:48;;;;;;;0.70;0.63;;;;;;;;;;5022540;28;20053;-85
2023/12/20 08:51:17;;;;;;;0.60;0.60;;;;;;;;;;5019264;28;20482;-86
2023/12/20 08:53:47;;;;;;;0.70;0.70;;;;;;;;;;5021283;28;20049;-83
2023/12/20 08:56:17;;;;;;;1.63;0.95;;;;;;;;;;5021006;28;20489;-83
2023/12/20 08:58:46;;;;;;;0.60;0.60;;;;;;;;;;5019638;28;20053;-85
2023/12/20 09:01:15;;;;;;;1.10;0.80;;;;;;;;;;5022525;28;20056;-84
2023/12/20 09:03:44;;;;;;;0.80;0.68;;;;;;;;;;5020832;28;20107;-82
2023/12/20 09:06:13;;;;;;;0.60;0.60;;;;;;;;;;5015715;28;20518;-85
2023/12/20 09:08:41;;;;;;;0.70;0.70;;;;;;;;;;5024652;28;20046;-83
2023/12/20 09:11:10;;;;;;;0.68;0.68;;;;;;;;;;5022519;28;20501;-85
2023/12/20 09:13:40;;;;;;;2.65;0.90;;;;;;;;;;5023218;28;20076;-84
2023/12/20 09:16:09;;;;;;;0.70;0.70;;;;;;;;;;5020131;28;20057;-84
2023/12/20 09:18:37;;;;;;;0.80;0.80;;;;;;;;;;5019933;28;20449;-83
2023/12/20 09:21:06;;;;;;;0.82;0.82;;;;;;;;;;5022263;28;20045;-86
2023/12/20 09:23:34;;;;;;;1.52;0.60;;;;;;;;;;5016318;28;20483;-85
2023/12/20 09:26:03;;;;;;;1.20;0.70;;;;;;;;;;5023228;28;20569;-84
2023/12/20 09:28:36;;;;;;;0.70;0.68;;;;;;;;;;5020626;28;20112;-86
2023/12/20 09:31:07;;;;;;;0.60;0.60;;;;;;;;;;5022674;28;20097;-86
2023/12/20 09:33:36;;;;;;;1.48;0.95;;;;;;;;;;5020136;28;20129;-85
2023/12/20 09:36:06;;;;;;;0.73;0.63;;;;;;;;;;5022529;28;20512;-83
2023/12/20 09:38:35;;;;;;;2.80;1.05;;;;;;;;;;5016373;28;20104;-84
2023/12/20 09:41:05;;;;;;;0.82;0.70;;;;;;;;;;5017229;28;20500;-84
2023/12/20 09:43:37;;;;;;;1.27;0.80;;;;;;;;;;5022955;28;20053;-86
2023/12/20 09:46:07;;;;;;;0.70;0.70;;;;;;;;;;5021244;28;20049;-84
2023/12/20 09:48:38;;;;;;;0.82;0.82;;;;;;;;;;5026725;28;20061;-86
2023/12/20 09:51:06;;;;;;;0.80;0.80;;;;;;;;;;5024441;28;20058;-83
2023/12/20 09:53:36;;;;;;;0.70;0.70;;;;;;;;;;5023380;28;20060;-87
2023/12/20 09:56:05;;;;;;;0.73;0.70;;;;;;;;;;5025547;28;20050;-83
2023/12/20 09:58:34;;;;;;;0.70;0.70;;;;;;;;;;5022765;28;20057;-85
2023/12/20 10:01:03;;;;;;;1.25;0.90;;;;;;;;;;5022525;28;20053;-87
2023/12/20 10:03:33;;;;;;;0.80;0.80;;;;;;;;;;5025043;28;20172;-85
2023/12/20 10:06:02;;;;;;;1.48;0.80;;;;;;;;;;5021969;28;20391;-86
2023/12/20 10:08:32;;;;;;;0.90;0.85;;;;;;;;;;5026553;28;20050;-83
2023/12/20 10:11:02;;;;;;;1.58;0.75;;;;;;;;;;5020662;28;20068;-84
2023/12/20 10:13:31;;;;;;;0.75;0.75;;;;;;;;;;5022283;28;20441;-84
2023/12/20 10:16:01;;;;;;;1.67;0.80;;;;;;;;;;5024046;28;20524;-85
2023/12/20 10:18:31;;;;;;;1.08;0.88;;;;;;;;;;5023028;28;20057;-83
2023/12/20 10:21:09;;;;;;;1.05;0.93;;;;;;;;;;5024194;28;20051;-86
2023/12/20 10:23:39;;;;;;;0.82;0.82;;;;;;;;;;5023257;28;20085;-85
2023/12/20 10:26:09;;;;;;;1.77;1.17;;;;;;;;;;5019867;28;20254;-86
2023/12/20 10:28:38;;;;;;;1.10;1.00;;;;;;;;;;5023459;28;20049;-88
2023/12/20 10:31:07;;;;;;;0.80;0.80;;;;;;;;;;5024058;28;20057;-85
2023/12/20 10:33:36;;;;;;;3.20;1.13;;;;;;;;;;5025406;28;20107;-84
2023/12/20 10:36:05;;;;;;;0.93;0.88;;;;;;;;;;5022602;28;20054;-88
2023/12/20 10:38:35;;;;;;;0.80;0.80;;;;;;;;;;5021005;28;20049;-84
2023/12/20 10:41:05;;;;;;;1.00;0.90;;;;;;;;;;5021597;28;20112;-86
2023/12/20 10:43:34;;;;;;;1.02;0.93;;;;;;;;;;5020624;28;20060;-86
2023/12/20 10:46:04;;;;;;;0.70;0.70;;;;;;;;;;5018730;28;20045;-87
2023/12/20 10:48:34;;;;;;;1.25;0.90;;;;;;;;;;5020586;28;20980;-86
2023/12/20 10:51:02;;;;;;;0.80;0.80;;;;;;;;;;5025561;28;20051;-87
2023/12/20 10:53:31;;;;;;;2.03;0.93;;;;;;;;;;5022620;28;20050;-87
2023/12/20 10:56:02;;;;;;;0.75;0.75;;;;;;;;;;5021737;28;20065;-86
2023/12/20 10:58:31;;;;;;;0.70;0.70;;;;;;;;;;5017849;28;20049;-84
2023/12/20 11:01:02;;;;;;;1.20;0.85;;;;;;;;;;5019105;28;20513;-86
2023/12/20 11:03:34;;;;;;;0.82;0.70;;;;;;;;;;5020563;28;20129;-83
2023/12/20 11:06:05;;;;;;;0.70;0.68;;;;;;;;;;5021665;28;20057;-83
2023/12/20 11:08:35;;;;;;;1.25;0.93;;;;;;;;;;5024550;28;20888;-83
2023/12/20 11:11:07;;;;;;;1.00;0.70;;;;;;;;;;5020962;28;20512;-84
2023/12/20 11:13:38;;;;;;;0.70;0.70;;;;;;;;;;5018872;28;20436;-84
2023/12/20 11:16:07;;;;;;;0.95;0.80;;;;;;;;;;5019923;28;20057;-83
2023/12/20 11:18:36;;;;;;;1.38;0.90;;;;;;;;;;5022973;28;20053;-84
2023/12/20 11:21:06;;;;;;;1.35;0.90;;;;;;;;;;5019067;28;20053;-84
2023/12/20 11:23:35;;;;;;;0.70;0.70;;;;;;;;;;5024776;28;20053;-85
2023/12/20 11:26:04;;;;;;;0.80;0.80;;;;;;;;;;5020557;28;20071;-83
2023/12/20 11:28:34;;;;;;;1.80;0.90;;;;;;;;;;5021631;28;20064;-84
2023/12/20 11:31:03;;;;;;;1.30;0.98;;;;;;;;;;5021348;28;20076;-85
2023/12/20 11:33:33;;;;;;;1.15;1.02;;;;;;;;;;5019315;28;20572;-84
2023/12/20 11:36:02;;;;;;;1.20;0.90;;;;;;;;;;5020086;28;20104;-87
2023/12/20 11:38:37;;;;;;;1.15;1.00;;;;;;;;;;5019514;28;20053;-84
2023/12/20 11:41:07;;;;;;;1.10;1.00;;;;;;;;;;5024388;28;20045;-84
2023/12/20 11:43:41;;;;;;;1.20;0.90;;;;;;;;;;5019600;28;20136;-88
2023/12/20 11:46:10;;;;;;;1.10;0.80;;;;;;;;;;5020341;28;20104;-85
2023/12/20 11:48:39;;;;;;;0.95;0.90;;;;;;;;;;5020545;28;20345;-85
2023/12/20 11:51:11;;;;;;;0.82;0.80;;;;;;;;;;5017209;28;20049;-84
2023/12/20 11:53:40;;;;;;;1.55;1.00;;;;;;;;;;5021765;28;20086;-84
2023/12/20 11:56:09;;;;;;;0.90;0.90;;;;;;;;;;5021312;28;20059;-83
2023/12/20 11:58:37;;;;;;;1.65;1.27;;;;;;;;;;5017688;28;20042;-85
2023/12/20 12:01:08;;;;;;;1.35;0.93;;;;;;;;;;5023065;28;20127;-84
2023/12/20 12:03:37;;;;;;;1.10;1.00;;;;;;;;;;5020647;28;20497;-85
2023/12/20 12:06:07;;;;;;;1.98;1.20;;;;;;;;;;5018831;28;20057;-83
2023/12/20 12:08:38;;;;;;;1.10;0.98;;;;;;;;;;5020844;28;20080;-84
2023/12/20 12:11:06;;;;;;;1.73;1.02;;;;;;;;;;5018453;28;20045;-85
2023/12/20 12:13:35;;;;;;;1.00;0.90;;;;;;;;;;5017947;28;20151;-84
2023/12/20 12:16:04;;;;;;;1.38;0.90;;;;;;;;;;5018074;28;20452;-84
2023/12/20 12:18:34;;;;;;;1.65;1.23;;;;;;;;;;5022110;28;20450;-84
2023/12/20 12:21:03;;;;;;;2.47;0.98;;;;;;;;;;5020385;28;20050;-84
2023/12/20 12:23:40;;;;;;;1.45;1.17;;;;;;;;;;5020952;28;20054;-84
2023/12/20 12:26:09;;;;;;;1.15;0.90;;;;;;;;;;5018112;28;20077;-84
2023/12/20 12:28:38;;;;;;;1.05;0.85;;;;;;;;;;5022294;28;20499;-86
2023/12/20 12:31:06;;;;;;;1.08;0.80;;;;;;;;;;5019070;28;20140;-85
2023/12/20 12:33:36;;;;;;;2.10;0.88;;;;;;;;;;5021238;28;20154;-86
2023/12/20 12:36:07;;;;;;;1.83;0.90;;;;;;;;;;5021513;28;20607;-85
2023/12/20 12:38:35;;;;;;;0.80;0.70;;;;;;;;;;5020846;28;20449;-83
2023/12/20 12:41:04;;;;;;;1.83;1.15;;;;;;;;;;5018601;28;20060;-84
2023/12/20 12:43:32;;;;;;;1.67;1.10;;;;;;;;;;5023457;28;20486;-84
2023/12/20 12:46:04;;;;;;;0.82;0.80;;;;;;;;;;5021116;28;20143;-85
2023/12/20 12:48:33;;;;;;;1.27;1.00;;;;;;;;;;5018417;28;20049;-86
2023/12/20 12:51:07;;;;;;;1.77;1.02;;;;;;;;;;5022630;28;20103;-87
2023/12/20 12:53:35;;;;;;;1.70;1.10;;;;;;;;;;5021461;28;20115;-85
2023/12/20 12:56:04;;;;;;;1.60;1.10;;;;;;;;;;5019952;28;20103;-84
2023/12/20 12:58:32;;;;;;;1.70;1.13;;;;;;;;;;5019198;28;20052;-84
2023/12/20 13:01:01;;;;;;;1.95;1.27;;;;;;;;;;5019328;28;20046;-84
2023/12/20 13:03:29;;;;;;;1.83;1.38;;;;;;;;;;5020726;28;20057;-83
2023/12/20 13:05:58;;;;;;;1.27;1.05;;;;;;;;;;5018322;28;20064;-83
2023/12/20 13:08:28;;;;;;;1.67;1.17;;;;;;;;;;5020542;28;20490;-83
2023/12/20 13:11:00;;;;;;;1.73;1.13;;;;;;;;;;5020212;28;20132;-84
2023/12/20 13:13:29;;;;;;;1.45;1.17;;;;;;;;;;5022112;28;20072;-85
2023/12/20 13:15:58;;;;;;;1.15;1.00;;;;;;;;;;5020763;28;20099;-85
2023/12/20 13:18:26;;;;;;;1.02;1.00;;;;;;;;;;5022620;28;20418;-85
2023/12/20 13:20:55;;;;;;;1.38;1.10;;;;;;;;;;5017453;28;20042;-85
2023/12/20 13:23:23;;;;;;;1.20;0.90;;;;;;;;;;5019423;28;20104;-84
2023/12/20 13:25:53;;;;;;;0.80;0.80;;;;;;;;;;5020981;28;20053;-86
2023/12/20 13:28:22;;;;;;;0.98;0.82;;;;;;;;;;5017083;28;20501;-84
2023/12/20 13:30:50;;;;;;;1.50;1.00;;;;;;;;;;5020115;28;20045;-84
2023/12/20 13:33:19;;;;;;;1.40;0.90;;;;;;;;;;5020504;28;20132;-85
2023/12/20 13:35:48;;;;;;;2.53;1.30;;;;;;;;;;5019283;28;20052;-84
2023/12/20 13:38:16;;;;;;;1.38;1.10;;;;;;;;;;5016641;28;20055;-85
2023/12/20 13:40:45;;;;;;;1.98;1.10;;;;;;;;;;5017694;28;20104;-86
2023/12/20 13:43:20;;;;;;;1.25;1.15;;;;;;;;;;5019390;28;20057;-84
2023/12/20 13:45:49;;;;;;;1.38;1.00;;;;;;;;;;5021513;28;20203;-84
2023/12/20 13:48:17;;;;;;;3.10;1.23;;;;;;;;;;5016104;28;20054;-84
2023/12/20 13:50:46;;;;;;;1.70;1.30;;;;;;;;;;5016419;28;20093;-84
2023/12/20 13:53:14;;;;;;;1.08;0.88;;;;;;;;;;5017873;28;20099;-86
2023/12/20 13:55:43;;;;;;;3.53;1.20;;;;;;;;;;5016862;28;20050;-85
2023/12/20 13:58:12;;;;;;;4.25;1.75;;;;;;;;;;5019131;28;20060;-86
2023/12/20 14:00:41;;;;;;;1.48;1.10;;;;;;;;;;5017616;28;20056;-85
2023/12/20 14:03:10;;;;;;;1.10;1.00;;;;;;;;;;5015668;28;20053;-85
2023/12/20 14:05:38;;;;;;;1.70;1.25;;;;;;;;;;5017653;28;20053;-85
2023/12/20 14:08:09;;;;;;;1.55;0.95;;;;;;;;;;5019603;28;20053;-85
2023/12/20 14:10:38;;;;;;;2.47;1.63;;;;;;;;;;5019822;28;20046;-89
2023/12/20 14:13:07;;;;;;;1.20;1.10;;;;;;;;;;5017481;28;20060;-85
2023/12/20 14:15:36;;;;;;;3.95;1.30;;;;;;;;;;5013537;28;20046;-85
2023/12/20 14:18:08;;;;;;;2.13;1.17;;;;;;;;;;5015946;28;20100;-88
2023/12/20 14:20:39;;;;;;;1.58;1.20;;;;;;;;;;5019636;28;20552;-87
2023/12/20 14:23:09;;;;;;;4.22;1.25;;;;;;;;;;5021088;28;20509;-89
2023/12/20 14:25:38;;;;;;;2.88;1.17;;;;;;;;;;5020521;28;20050;-87
2023/12/20 14:28:19;;;;;;;1.90;1.40;;;;;;;;;;5016854;28;20288;-88
2023/12/20 14:30:48;;;;;;;2.60;1.30;;;;;;;;;;5022251;28;20084;-89
2023/12/20 14:33:21;;;;;;;1.33;1.23;;;;;;;;;;5020167;28;20046;-89
2023/12/20 14:35:50;;;;;;;2.35;1.23;;;;;;;;;;5021332;28;20046;-89
2023/12/20 14:38:19;;;;;;;3.08;1.27;;;;;;;;;;5023392;28;20513;-89
2023/12/20 14:40:47;;;;;;;2.78;1.20;;;;;;;;;;5018970;28;20050;-89
2023/12/20 14:43:16;;;;;;;2.28;1.15;;;;;;;;;;5023735;28;20060;-86
2023/12/20 14:45:45;;;;;;;1.50;1.13;;;;;;;;;;5022489;28;20184;-84
2023/12/20 14:48:13;;;;;;;3.17;1.38;;;;;;;;;;5020967;28;20046;-86
2023/12/20 14:50:43;;;;;;;4.35;1.50;;;;;;;;;;5023574;28;20064;-84
2023/12/20 14:53:12;;;;;;;1.23;1.00;;;;;;;;;;5019663;28;20052;-85
2023/12/20 14:55:40;;;;;;;1.25;1.02;;;;;;;;;;5019560;28;20449;-86